createdAt,value
2018-12-23T04:39:12.142Z,1.30
2018-12-23T04:41:42.004Z,1.67
2018-12-23T04:44:10.796Z,2.27
2018-12-23T04:46:39.628Z,2.07
2018-12-23T04:49:10.292Z,1.80
2018-12-23T04:51:53.274Z,1.53
2018-12-23T04:54:22.528Z,2.17
2018-12-23T04:56:55.124Z,1.70
2018-12-23T04:59:27.668Z,2.20
2018-12-23T05:01:58.524Z,2.43
2018-12-23T05:04:28.324Z,1.97
2018-12-23T05:07:03.497Z,1.62
2018-12-23T05:09:41.119Z,2.70
2018-12-23T05:12:10.824Z,2.10
2018-12-23T05:14:39.620Z,1.80
2018-12-23T05:17:11.552Z,1.80
2018-12-23T05:19:44.737Z,1.67
2018-12-23T05:22:13.548Z,1.90
2018-12-23T05:24:43.240Z,2.30
2018-12-23T05:27:12.976Z,1.87
2018-12-23T05:29:54.240Z,2.37
2018-12-23T05:32:31.088Z,1.70
2018-12-23T05:35:00.870Z,1.97
2018-12-23T05:37:32.756Z,1.97
2018-12-23T05:40:01.613Z,2.45
2018-12-23T05:42:33.844Z,2.50
2018-12-23T05:45:04.959Z,2.90
2018-12-23T05:47:35.776Z,2.72
2018-12-23T05:50:10.533Z,2.47
2018-12-23T05:52:44.168Z,3.00
2018-12-23T05:55:23.796Z,2.27
2018-12-23T05:57:53.709Z,2.55
2018-12-23T06:00:22.633Z,1.97
2018-12-23T06:02:51.424Z,2.35
2018-12-23T06:05:22.200Z,2.10
2018-12-23T06:07:54.340Z,2.33
2018-12-23T06:10:23.220Z,2.70
2018-12-23T06:12:55.593Z,1.65
2018-12-23T06:15:28.263Z,2.20
2018-12-23T06:17:57.072Z,3.55
2018-12-23T06:20:29.897Z,2.35
2018-12-23T06:22:59.591Z,4.40
2018-12-23T06:25:30.480Z,2.35
2018-12-23T06:28:01.104Z,2.27
2018-12-23T06:30:29.909Z,2.45
2018-12-23T06:32:58.759Z,2.60
2018-12-23T06:35:27.592Z,2.47
2018-12-23T06:37:56.400Z,2.70
2018-12-23T06:40:25.204Z,3.10
2018-12-23T06:42:54.071Z,2.60
2018-12-23T06:45:23.896Z,2.72
2018-12-23T06:47:55.019Z,2.10
2018-12-23T06:50:28.583Z,3.57
2018-12-23T06:52:59.442Z,3.47
2018-12-23T06:55:28.316Z,2.87
2018-12-23T06:58:00.712Z,2.47
2018-12-23T07:00:35.343Z,1.98
2018-12-23T07:03:08.032Z,2.80
2018-12-23T07:05:38.027Z,2.17
2018-12-23T07:08:09.851Z,2.90
2018-12-23T07:10:45.152Z,2.45
2018-12-23T07:13:17.918Z,2.87
2018-12-23T07:15:48.552Z,3.05
2018-12-23T07:18:27.577Z,1.95
2018-12-23T07:20:59.881Z,2.72
2018-12-23T07:23:28.696Z,3.00
2018-12-23T07:25:58.448Z,2.75
2018-12-23T07:28:30.713Z,2.30
2018-12-23T07:30:59.656Z,2.30
2018-12-23T07:33:28.364Z,2.10
2018-12-23T07:35:57.231Z,2.60
2018-12-23T07:38:26.004Z,2.10
2018-12-23T07:40:54.838Z,2.27
2018-12-23T07:43:24.546Z,1.87
2018-12-23T07:45:53.528Z,2.70
2018-12-23T07:48:24.000Z,2.57
2018-12-23T07:50:53.875Z,2.50
2018-12-23T07:53:32.896Z,2.12
2018-12-23T07:56:01.869Z,3.40
2018-12-23T07:58:34.719Z,1.90
2018-12-23T08:01:04.637Z,1.83
2018-12-23T08:03:33.579Z,2.30
2018-12-23T08:06:04.380Z,2.70
2018-12-23T08:08:38.236Z,2.08
2018-12-23T08:11:08.983Z,2.10
2018-12-23T08:13:43.180Z,1.93
2018-12-23T08:16:13.015Z,2.30
2018-12-23T08:18:41.875Z,3.17
2018-12-23T08:21:10.639Z,2.03
2018-12-23T08:23:44.443Z,1.65
2018-12-23T08:26:16.970Z,2.40
2018-12-23T08:28:45.808Z,2.67
2018-12-23T08:31:14.559Z,2.80
2018-12-23T08:33:44.321Z,2.90
2018-12-23T08:36:17.751Z,4.57
2018-12-23T08:38:46.483Z,3.50
2018-12-23T08:41:15.307Z,4.60
2018-12-23T08:43:44.055Z,3.80
2018-12-23T08:46:26.663Z,1.43
2018-12-23T08:48:59.093Z,1.70
2018-12-23T08:51:32.204Z,1.40
2018-12-23T08:54:04.068Z,1.47
2018-12-23T08:56:45.839Z,3.93
2018-12-23T08:59:14.552Z,1.43
2018-12-23T09:01:43.380Z,2.45
2018-12-23T09:04:12.188Z,1.90
2018-12-23T09:06:42.095Z,2.03
2018-12-23T09:12:14.923Z,2.10
2018-12-23T09:14:47.569Z,2.10
2018-12-23T09:17:21.304Z,1.63
2018-12-23T09:19:51.083Z,2.45
2018-12-23T09:22:19.863Z,1.90
2018-12-23T09:24:53.167Z,2.30
2018-12-23T09:27:25.403Z,2.30
2018-12-23T09:29:54.160Z,1.60
2018-12-23T09:32:26.619Z,2.17
2018-12-23T09:34:55.436Z,2.10
2018-12-23T09:37:24.252Z,2.13
2018-12-23T09:39:53.136Z,1.53
2018-12-23T09:42:22.012Z,3.87
2018-12-23T09:44:52.904Z,2.70
2018-12-23T09:47:21.739Z,2.90
2018-12-23T09:49:50.459Z,2.07
2018-12-23T09:52:31.824Z,3.20
2018-12-23T09:55:04.191Z,3.30
2018-12-23T09:57:33.960Z,2.40
2018-12-23T10:00:03.260Z,2.20
2018-12-23T10:02:35.592Z,2.33
2018-12-23T10:05:07.525Z,2.13
2018-12-23T10:07:37.208Z,3.03
2018-12-23T10:10:10.608Z,2.60
2018-12-23T10:12:49.816Z,2.80
2018-12-23T10:15:19.597Z,2.10
2018-12-23T10:17:49.288Z,2.27
2018-12-23T10:20:24.368Z,2.73
2018-12-23T10:22:53.176Z,2.73
2018-12-23T10:25:21.944Z,3.23
2018-12-23T10:27:51.664Z,3.37
2018-12-23T10:30:21.460Z,5.43
2018-12-23T10:32:51.121Z,4.80
2018-12-23T10:35:20.053Z,7.10
2018-12-23T10:37:49.004Z,2.63
2018-12-23T10:40:17.864Z,3.53
2018-12-23T10:42:49.736Z,4.10
2018-12-23T10:45:20.500Z,6.63
2018-12-23T10:47:51.184Z,2.77
2018-12-23T10:50:20.117Z,4.00
2018-12-23T10:53:22.088Z,3.57
2018-12-23T10:55:54.076Z,7.90
2018-12-23T10:58:24.108Z,3.13
2018-12-23T11:00:53.944Z,3.63
2018-12-23T11:03:28.102Z,2.53
2018-12-23T11:05:58.180Z,3.17
2018-12-23T11:08:28.265Z,2.90
2018-12-23T11:10:59.516Z,2.73
2018-12-23T11:13:29.512Z,2.50
2018-12-23T11:15:59.413Z,2.97
2018-12-23T11:18:29.297Z,2.43
2018-12-23T11:21:01.080Z,3.47
2018-12-23T11:23:31.274Z,3.07
2018-12-23T11:26:01.528Z,3.17
2018-12-23T11:28:31.452Z,2.73
2018-12-23T11:31:01.283Z,3.30
2018-12-23T11:33:31.148Z,1.90
2018-12-23T11:36:00.948Z,2.67
2018-12-23T11:38:35.393Z,2.13
2018-12-23T11:41:04.360Z,2.20
2018-12-23T11:43:37.888Z,7.10
2018-12-23T11:46:07.976Z,2.37
2018-12-23T11:48:38.239Z,2.60
2018-12-23T11:51:09.212Z,3.10
2018-12-23T11:53:39.172Z,2.03
2018-12-23T11:56:09.119Z,2.50
2018-12-23T11:58:39.824Z,3.60
2018-12-23T12:01:09.976Z,3.83
2018-12-23T12:03:41.984Z,3.50
2018-12-23T12:06:12.062Z,3.37
2018-12-23T12:08:43.917Z,2.57
2018-12-23T12:11:13.488Z,3.03
2018-12-23T12:13:50.069Z,3.07
2018-12-23T12:16:20.816Z,3.63
2018-12-23T12:18:51.929Z,3.30
2018-12-23T12:21:21.856Z,2.60
2018-12-23T12:23:51.988Z,2.77
2018-12-23T12:26:21.921Z,5.50
2018-12-23T12:28:51.968Z,3.20
2018-12-23T12:31:21.932Z,4.00
2018-12-23T12:33:52.064Z,3.50
2018-12-23T12:36:22.269Z,3.53
2018-12-23T12:38:52.548Z,3.60
2018-12-23T12:41:22.489Z,2.77
2018-12-23T12:43:52.285Z,4.03
2018-12-23T12:46:24.553Z,2.50
2018-12-23T12:48:54.433Z,2.63
2018-12-23T12:51:24.593Z,2.67
2018-12-23T12:53:54.554Z,3.03
2018-12-23T12:56:26.755Z,3.43
2018-12-23T12:58:57.877Z,3.73
2018-12-23T13:01:28.133Z,4.73
2018-12-23T13:03:59.075Z,4.30
2018-12-23T13:06:29.001Z,5.63
2018-12-23T13:09:00.609Z,3.70
2018-12-23T13:11:30.793Z,5.67
2018-12-23T13:14:01.928Z,4.70
2018-12-23T13:16:31.834Z,4.87
2018-12-23T13:19:02.791Z,3.70
2018-12-23T13:21:33.797Z,4.63
2018-12-23T13:24:05.893Z,3.73
2018-12-23T13:26:36.081Z,4.97
2018-12-23T13:29:06.267Z,5.40
2018-12-23T13:31:37.201Z,5.47
2018-12-23T13:34:07.123Z,4.10
2018-12-23T13:36:38.275Z,5.90
2018-12-23T13:39:09.741Z,6.97
2018-12-23T13:41:53.477Z,5.13
2018-12-23T13:44:41.605Z,5.80
2018-12-23T13:47:51.245Z,3.13
2018-12-23T13:50:56.507Z,5.00
2018-12-23T13:53:29.606Z,3.53
2018-12-23T13:56:08.321Z,3.50
2018-12-23T13:59:03.450Z,2.57
2018-12-23T14:02:06.477Z,3.60
2018-12-23T14:04:57.401Z,3.77
2018-12-23T14:07:34.778Z,2.90
2018-12-23T14:10:46.330Z,2.80
2018-12-23T14:13:17.578Z,2.80
2018-12-23T14:15:47.518Z,3.90
2018-12-23T14:18:18.650Z,3.30
2018-12-23T14:20:48.844Z,2.60
2018-12-23T14:23:20.701Z,1.90
2018-12-23T14:25:50.591Z,2.30
2018-12-23T14:28:20.689Z,3.45
2018-12-23T14:30:51.020Z,2.00
2018-12-23T14:33:22.000Z,3.05
2018-12-23T14:35:52.789Z,2.70
2018-12-23T14:38:22.921Z,4.20
2018-12-23T14:40:52.933Z,3.50
2018-12-23T14:43:22.777Z,2.33
2018-12-23T14:45:52.650Z,3.20
2018-12-23T14:48:23.670Z,2.60
2018-12-23T14:50:53.773Z,2.00
2018-12-23T14:53:23.561Z,2.40
2018-12-23T14:55:53.360Z,2.03
2018-12-23T14:58:24.234Z,2.80
2018-12-23T15:00:57.765Z,2.40
2018-12-23T15:03:28.534Z,2.83
2018-12-23T15:06:01.419Z,2.50
2018-12-23T15:08:34.618Z,3.30
2018-12-23T15:11:04.751Z,2.90
2018-12-23T15:13:35.934Z,2.80
2018-12-23T15:16:06.138Z,2.97
2018-12-23T15:18:43.382Z,2.23
2018-12-23T15:21:15.933Z,2.40
2018-12-23T15:23:45.766Z,2.15
2018-12-23T15:26:15.887Z,2.90
2018-12-23T15:28:46.666Z,3.27
2018-12-23T15:31:22.382Z,3.40
2018-12-23T15:33:54.662Z,2.33
2018-12-23T15:36:28.011Z,1.73
2018-12-23T15:38:58.962Z,2.70
2018-12-23T15:41:32.334Z,2.47
2018-12-23T15:44:03.534Z,3.02
2018-12-23T15:46:34.378Z,2.00
2018-12-23T15:49:05.185Z,2.55
2018-12-23T15:51:41.057Z,2.80
2018-12-23T15:54:12.218Z,2.40
2018-12-23T15:56:42.170Z,2.27
2018-12-23T15:59:12.676Z,2.22
2018-12-23T16:01:43.613Z,2.67
2018-12-23T16:04:13.750Z,1.98
2018-12-23T16:06:43.794Z,2.15
2018-12-23T16:09:13.982Z,2.25
2018-12-23T16:11:47.723Z,2.02
2018-12-23T16:14:33.475Z,2.80
2018-12-23T16:17:04.389Z,2.73
2018-12-23T16:19:35.777Z,2.55
2018-12-23T16:22:10.634Z,2.55
2018-12-23T16:25:05.297Z,2.72
2018-12-23T16:27:54.161Z,2.65
2018-12-23T16:30:24.450Z,2.93
2018-12-23T16:32:57.094Z,2.10
2018-12-23T16:35:39.611Z,2.80
2018-12-23T16:38:16.753Z,2.40
2018-12-23T16:40:57.443Z,2.50
2018-12-23T16:43:27.433Z,2.80
2018-12-23T16:46:10.486Z,2.08
2018-12-23T16:48:40.642Z,2.80
2018-12-23T16:51:25.376Z,3.02
2018-12-23T16:54:03.290Z,2.60
2018-12-23T16:56:39.418Z,2.52
2018-12-23T16:59:09.401Z,2.40
2018-12-23T17:01:50.357Z,1.85
2018-12-23T17:04:26.695Z,1.90
2018-12-23T17:07:09.169Z,2.00
2018-12-23T17:09:39.922Z,1.57
2018-12-23T17:12:09.892Z,2.87
2018-12-23T17:14:42.846Z,2.07
2018-12-23T17:17:15.530Z,2.00
2018-12-23T17:19:45.767Z,1.90
2018-12-23T17:22:44.450Z,1.90
2018-12-23T17:25:24.762Z,3.30
2018-12-23T17:28:02.606Z,3.20
2018-12-23T17:30:33.918Z,2.65
2018-12-23T17:33:08.539Z,2.87
2018-12-23T17:35:50.622Z,2.45
2018-12-23T17:38:22.648Z,2.40
2018-12-23T17:41:03.538Z,2.00
2018-12-23T17:43:42.589Z,2.52
2018-12-23T17:46:12.754Z,1.80
2018-12-23T17:48:43.835Z,2.17
2018-12-23T17:51:14.920Z,2.00
2018-12-23T17:53:45.247Z,1.82
2018-12-23T17:56:17.110Z,1.60
2018-12-23T17:58:54.306Z,1.55
2018-12-23T18:01:31.979Z,1.70
2018-12-23T18:04:03.503Z,1.90
2018-12-23T18:06:40.482Z,2.10
2018-12-23T18:09:11.422Z,2.50
2018-12-23T18:11:48.780Z,2.92
2018-12-23T18:14:29.567Z,4.08
2018-12-23T18:17:02.522Z,4.03
2018-12-23T18:19:39.186Z,3.85
2018-12-23T18:22:11.346Z,4.20
2018-12-23T18:24:43.802Z,3.62
2018-12-23T18:27:15.051Z,2.87
2018-12-23T18:29:52.233Z,3.40
2018-12-23T18:32:35.550Z,3.50
2018-12-23T18:35:22.780Z,3.10
2018-12-23T18:37:53.006Z,2.72
2018-12-23T18:40:33.269Z,3.35
2018-12-23T18:43:04.039Z,2.98
2018-12-23T18:45:33.981Z,2.50
2018-12-23T18:48:22.548Z,2.47
2018-12-23T18:51:00.707Z,2.67
2018-12-23T18:53:36.194Z,3.00
2018-12-23T18:56:12.801Z,2.80
2018-12-23T18:58:50.517Z,3.33
2018-12-23T19:01:53.427Z,3.10
2018-12-23T19:04:25.587Z,3.65
2018-12-23T19:07:16.989Z,4.00
2018-12-23T19:09:47.535Z,3.50
2018-12-23T19:12:42.994Z,4.72
2018-12-23T19:15:37.451Z,3.85
2018-12-23T19:18:42.036Z,3.85
2018-12-23T19:22:03.727Z,3.55
2018-12-23T19:24:58.124Z,3.83
2018-12-23T19:28:21.187Z,4.12
2018-12-23T19:31:20.295Z,3.27
2018-12-23T19:34:25.068Z,3.62
2018-12-23T19:37:16.573Z,4.80
2018-12-23T19:40:41.492Z,3.22
2018-12-23T19:43:34.127Z,3.50
2018-12-23T19:46:43.010Z,4.25
2018-12-23T19:49:51.325Z,3.40
2018-12-23T19:53:16.185Z,4.60
2018-12-23T19:56:25.675Z,4.00
2018-12-23T19:59:32.447Z,4.20
2018-12-23T20:02:32.971Z,4.30
2018-12-23T20:05:27.287Z,4.60
2018-12-23T20:08:38.875Z,4.50
2018-12-23T20:11:19.273Z,4.73
2018-12-23T20:14:11.503Z,4.60
2018-12-23T20:17:04.315Z,5.20
2018-12-23T20:20:00.210Z,5.03
2018-12-23T20:22:51.423Z,5.07
2018-12-23T20:25:48.582Z,4.43
2018-12-23T20:28:39.772Z,4.23
2018-12-23T20:31:26.312Z,4.83
2018-12-23T20:34:18.652Z,4.33
2018-12-23T20:37:01.191Z,6.50
2018-12-23T20:40:08.591Z,4.97
2018-12-23T20:43:09.949Z,4.40
2018-12-23T20:46:05.627Z,3.63
2018-12-23T20:48:55.343Z,8.60
2018-12-23T20:52:08.211Z,4.83
2018-12-23T20:55:20.329Z,4.20
2018-12-23T20:58:11.644Z,3.77
2018-12-23T21:01:21.422Z,4.60
2018-12-23T21:04:29.855Z,4.77
2018-12-23T21:07:37.843Z,3.90
2018-12-23T21:10:35.723Z,4.67
2018-12-23T21:13:52.356Z,3.13
2018-12-23T21:17:03.715Z,3.57
2018-12-23T21:20:13.082Z,3.97
2018-12-23T21:23:16.768Z,2.80
2018-12-23T21:26:34.219Z,3.33
2018-12-23T21:29:31.514Z,2.60
2018-12-23T21:32:57.162Z,2.50
2018-12-23T21:35:45.090Z,3.30
2018-12-23T21:38:38.252Z,2.73
2018-12-23T21:41:50.718Z,3.23
2018-12-23T21:44:36.830Z,2.40
2018-12-23T21:47:43.938Z,2.50
2018-12-23T21:50:27.142Z,1.93
2018-12-23T21:53:31.768Z,2.07
2018-12-23T21:56:51.058Z,3.47
2018-12-23T21:59:58.939Z,1.97
2018-12-23T22:02:51.706Z,1.77
2018-12-23T22:05:48.629Z,1.63
2018-12-23T22:08:56.854Z,1.80
2018-12-23T22:11:51.072Z,1.30
2018-12-23T22:14:29.195Z,1.17
2018-12-23T22:17:02.961Z,1.27
2018-12-23T22:19:39.076Z,1.57
2018-12-23T22:22:27.730Z,2.50
2018-12-23T22:25:08.379Z,1.10
2018-12-23T22:27:39.698Z,1.07
2018-12-23T22:30:11.854Z,1.00
2018-12-23T22:32:42.787Z,0.90
2018-12-23T22:35:12.590Z,0.93
2018-12-23T22:37:47.499Z,1.00
2018-12-23T22:40:24.292Z,2.33
2018-12-23T22:42:56.162Z,1.20
2018-12-23T22:45:27.294Z,0.73
2018-12-23T22:47:57.283Z,0.93
2018-12-23T22:50:27.191Z,2.60
2018-12-23T22:52:57.319Z,0.80
2018-12-23T22:55:27.789Z,1.17
2018-12-23T22:58:00.387Z,1.40
2018-12-23T23:00:31.631Z,0.80
2018-12-23T23:03:08.974Z,0.80
2018-12-23T23:05:40.303Z,0.80
2018-12-23T23:08:17.631Z,0.93
2018-12-23T23:10:47.682Z,0.80
2018-12-23T23:13:21.387Z,0.80
2018-12-23T23:15:57.120Z,0.80
2018-12-23T23:18:40.087Z,0.73
2018-12-23T23:21:14.216Z,0.70
2018-12-23T23:23:48.554Z,0.60
2018-12-23T23:26:26.911Z,0.63
2018-12-23T23:29:02.594Z,0.50
2018-12-23T23:31:35.852Z,0.70
2018-12-23T23:34:07.190Z,0.70
2018-12-23T23:36:37.556Z,0.70
2018-12-23T23:39:16.907Z,0.70
2018-12-23T23:42:03.314Z,0.70
2018-12-23T23:44:35.415Z,1.10
2018-12-23T23:47:11.507Z,0.80
2018-12-23T23:49:47.186Z,0.60
2018-12-23T23:52:18.382Z,0.70
2018-12-23T23:54:51.218Z,0.60
2018-12-23T23:57:29.419Z,0.60
